sensor_id;sensor_type;location;lat;lon;timestamp;temperature;humidity
3186;DHT22;1604;53.700;10.252;2023-09-08T00:00:02;16.70;99.90
3186;DHT22;1604;53.700;10.252;2023-09-08T00:03:06;16.70;99.90
3186;DHT22;1604;53.700;10.252;2023-09-08T00:06:08;16.70;99.90
3186;DHT22;1604;53.700;10.252;2023-09-08T00:09:16;16.60;99.90
3186;DHT22;1604;53.700;10.252;2023-09-08T00:12:18;16.60;99.90
3186;DHT22;1604;53.700;10.252;2023-09-08T00:15:19;16.50;99.90
3186;DHT22;1604;53.700;10.252;2023-09-08T00:18:23;16.50;99.90
3186;DHT22;1604;53.700;10.252;2023-09-08T00:21:25;16.40;99.90
3186;DHT22;1604;53.700;10.252;2023-09-08T00:24:27;16.40;99.90
3186;DHT22;1604;53.700;10.252;2023-09-08T00:27:29;16.40;99.90
3186;DHT22;1604;53.700;10.252;2023-09-08T00:30:31;16.30;99.90
3186;DHT22;1604;53.700;10.252;2023-09-08T00:33:34;16.30;99.90
3186;DHT22;1604;53.700;10.252;2023-09-08T00:36:37;16.20;99.90
3186;DHT22;1604;53.700;10.252;2023-09-08T00:39:39;16.20;99.90
3186;DHT22;1604;53.700;10.252;2023-09-08T00:42:41;16.10;99.90
3186;DHT22;1604;53.700;10.252;2023-09-08T00:45:43;16.00;99.90
3186;DHT22;1604;53.700;10.252;2023-09-08T00:48:46;16.00;99.90
3186;DHT22;1604;53.700;10.252;2023-09-08T00:51:48;16.00;99.90
3186;DHT22;1604;53.700;10.252;2023-09-08T00:54:50;15.90;99.90
3186;DHT22;1604;53.700;10.252;2023-09-08T00:57:52;16.00;99.90
3186;DHT22;1604;53.700;10.252;2023-09-08T01:00:54;15.90;99.90
3186;DHT22;1604;53.700;10.252;2023-09-08T01:04:02;15.90;99.90
3186;DHT22;1604;53.700;10.252;2023-09-08T01:07:04;15.90;99.90
3186;DHT22;1604;53.700;10.252;2023-09-08T01:10:10;15.90;99.90
3186;DHT22;1604;53.700;10.252;2023-09-08T01:13:15;15.90;99.90
3186;DHT22;1604;53.700;10.252;2023-09-08T01:16:17;15.80;99.90
3186;DHT22;1604;53.700;10.252;2023-09-08T01:19:21;15.80;99.90
3186;DHT22;1604;53.700;10.252;2023-09-08T01:23:06;15.80;99.90
3186;DHT22;1604;53.700;10.252;2023-09-08T01:26:16;15.70;99.90
3186;DHT22;1604;53.700;10.252;2023-09-08T01:29:19;15.70;99.90
3186;DHT22;1604;53.700;10.252;2023-09-08T01:32:24;15.70;99.90
3186;DHT22;1604;53.700;10.252;2023-09-08T01:35:26;15.70;99.90
3186;DHT22;1604;53.700;10.252;2023-09-08T01:38:29;15.70;99.90
3186;DHT22;1604;53.700;10.252;2023-09-08T01:41:32;15.60;99.90
3186;DHT22;1604;53.700;10.252;2023-09-08T01:44:34;15.60;99.90
3186;DHT22;1604;53.700;10.252;2023-09-08T01:47:39;15.60;99.90
3186;DHT22;1604;53.700;10.252;2023-09-08T01:50:41;15.50;99.90
3186;DHT22;1604;53.700;10.252;2023-09-08T01:53:46;15.40;99.90
3186;DHT22;1604;53.700;10.252;2023-09-08T01:56:53;15.40;99.90
3186;DHT22;1604;53.700;10.252;2023-09-08T01:59:55;15.30;99.90
3186;DHT22;1604;53.700;10.252;2023-09-08T02:02:56;15.30;99.90
3186;DHT22;1604;53.700;10.252;2023-09-08T02:06:01;15.20;99.90
3186;DHT22;1604;53.700;10.252;2023-09-08T02:09:04;15.20;99.90
3186;DHT22;1604;53.700;10.252;2023-09-08T02:12:07;15.20;99.90
3186;DHT22;1604;53.700;10.252;2023-09-08T02:15:10;15.10;99.90
3186;DHT22;1604;53.700;10.252;2023-09-08T02:18:12;15.10;99.90
3186;DHT22;1604;53.700;10.252;2023-09-08T02:21:14;15.10;99.90
3186;DHT22;1604;53.700;10.252;2023-09-08T02:24:16;15.10;99.90
3186;DHT22;1604;53.700;10.252;2023-09-08T02:27:19;15.10;99.90
3186;DHT22;1604;53.700;10.252;2023-09-08T02:30:22;15.10;99.90
3186;DHT22;1604;53.700;10.252;2023-09-08T02:33:24;15.10;99.90
3186;DHT22;1604;53.700;10.252;2023-09-08T02:36:26;15.10;99.90
3186;DHT22;1604;53.700;10.252;2023-09-08T02:39:28;15.10;99.90
3186;DHT22;1604;53.700;10.252;2023-09-08T02:42:31;15.10;99.90
3186;DHT22;1604;53.700;10.252;2023-09-08T02:45:33;15.10;99.90
3186;DHT22;1604;53.700;10.252;2023-09-08T02:48:35;15.10;99.90
3186;DHT22;1604;53.700;10.252;2023-09-08T02:51:37;15.20;99.90
3186;DHT22;1604;53.700;10.252;2023-09-08T02:54:39;15.20;99.90
3186;DHT22;1604;53.700;10.252;2023-09-08T02:57:45;15.20;99.90
3186;DHT22;1604;53.700;10.252;2023-09-08T03:00:47;15.20;99.90
3186;DHT22;1604;53.700;10.252;2023-09-08T03:03:49;15.20;99.90
3186;DHT22;1604;53.700;10.252;2023-09-08T03:06:50;15.20;99.90
3186;DHT22;1604;53.700;10.252;2023-09-08T03:09:53;15.20;99.90
3186;DHT22;1604;53.700;10.252;2023-09-08T03:12:56;15.20;99.90
3186;DHT22;1604;53.700;10.252;2023-09-08T03:16:02;15.10;99.90
3186;DHT22;1604;53.700;10.252;2023-09-08T03:19:05;15.10;99.90
3186;DHT22;1604;53.700;10.252;2023-09-08T03:22:07;15.10;99.90
3186;DHT22;1604;53.700;10.252;2023-09-08T03:25:13;15.10;99.90
3186;DHT22;1604;53.700;10.252;2023-09-08T03:28:16;15.00;99.90
3186;DHT22;1604;53.700;10.252;2023-09-08T03:31:21;15.00;99.90
3186;DHT22;1604;53.700;10.252;2023-09-08T03:34:23;15.00;99.90
3186;DHT22;1604;53.700;10.252;2023-09-08T03:37:25;15.00;99.90
3186;DHT22;1604;53.700;10.252;2023-09-08T03:40:27;15.00;99.90
3186;DHT22;1604;53.700;10.252;2023-09-08T03:43:31;15.00;99.90
3186;DHT22;1604;53.700;10.252;2023-09-08T03:46:32;15.00;99.90
3186;DHT22;1604;53.700;10.252;2023-09-08T03:49:35;15.00;99.90
3186;DHT22;1604;53.700;10.252;2023-09-08T03:52:36;15.00;99.90
3186;DHT22;1604;53.700;10.252;2023-09-08T03:55:38;15.00;99.90
3186;DHT22;1604;53.700;10.252;2023-09-08T03:58:42;15.00;99.90
3186;DHT22;1604;53.700;10.252;2023-09-08T04:01:44;14.90;99.90
3186;DHT22;1604;53.700;10.252;2023-09-08T04:04:45;14.90;99.90
3186;DHT22;1604;53.700;10.252;2023-09-08T04:07:47;14.90;99.90
3186;DHT22;1604;53.700;10.252;2023-09-08T04:10:49;14.90;99.90
3186;DHT22;1604;53.700;10.252;2023-09-08T04:13:53;14.80;99.90
3186;DHT22;1604;53.700;10.252;2023-09-08T04:16:54;14.80;99.90
3186;DHT22;1604;53.700;10.252;2023-09-08T04:19:56;14.80;99.90
3186;DHT22;1604;53.700;10.252;2023-09-08T04:22:58;14.80;99.90
3186;DHT22;1604;53.700;10.252;2023-09-08T04:26:00;14.80;99.90
3186;DHT22;1604;53.700;10.252;2023-09-08T04:29:04;14.70;99.90
3186;DHT22;1604;53.700;10.252;2023-09-08T04:32:06;14.70;99.90
3186;DHT22;1604;53.700;10.252;2023-09-08T04:35:12;14.70;99.90
3186;DHT22;1604;53.700;10.252;2023-09-08T04:38:14;14.70;99.90
3186;DHT22;1604;53.700;10.252;2023-09-08T04:41:16;14.60;99.90
3186;DHT22;1604;53.700;10.252;2023-09-08T04:44:22;14.60;99.90
3186;DHT22;1604;53.700;10.252;2023-09-08T04:47:23;14.60;99.90
3186;DHT22;1604;53.700;10.252;2023-09-08T04:50:25;14.60;99.90
3186;DHT22;1604;53.700;10.252;2023-09-08T04:53:27;14.50;99.90
3186;DHT22;1604;53.700;10.252;2023-09-08T04:56:29;14.50;99.90
3186;DHT22;1604;53.700;10.252;2023-09-08T04:59:32;14.60;99.90
3186;DHT22;1604;53.700;10.252;2023-09-08T05:02:37;14.60;99.90
3186;DHT22;1604;53.700;10.252;2023-09-08T05:05:39;14.60;99.90
3186;DHT22;1604;53.700;10.252;2023-09-08T05:08:41;14.60;99.90
3186;DHT22;1604;53.700;10.252;2023-09-08T05:11:44;14.70;99.90
3186;DHT22;1604;53.700;10.252;2023-09-08T05:14:47;14.70;99.90
3186;DHT22;1604;53.700;10.252;2023-09-08T05:17:49;14.80;99.90
3186;DHT22;1604;53.700;10.252;2023-09-08T05:20:51;14.80;99.90
3186;DHT22;1604;53.700;10.252;2023-09-08T05:23:53;14.90;99.90
3186;DHT22;1604;53.700;10.252;2023-09-08T05:26:55;14.90;99.90
3186;DHT22;1604;53.700;10.252;2023-09-08T05:29:58;15.00;99.90
3186;DHT22;1604;53.700;10.252;2023-09-08T05:33:00;15.00;99.90
3186;DHT22;1604;53.700;10.252;2023-09-08T05:36:02;15.10;99.90
3186;DHT22;1604;53.700;10.252;2023-09-08T05:39:08;15.20;99.90
3186;DHT22;1604;53.700;10.252;2023-09-08T05:42:10;15.30;99.90
3186;DHT22;1604;53.700;10.252;2023-09-08T05:45:14;15.40;99.90
3186;DHT22;1604;53.700;10.252;2023-09-08T05:48:16;15.50;99.90
3186;DHT22;1604;53.700;10.252;2023-09-08T05:51:18;15.70;99.90
3186;DHT22;1604;53.700;10.252;2023-09-08T05:54:20;15.80;99.90
3186;DHT22;1604;53.700;10.252;2023-09-08T05:57:22;16.00;99.90
3186;DHT22;1604;53.700;10.252;2023-09-08T06:00:28;16.20;99.90
3186;DHT22;1604;53.700;10.252;2023-09-08T06:03:30;16.50;99.90
3186;DHT22;1604;53.700;10.252;2023-09-08T06:06:32;16.70;99.90
3186;DHT22;1604;53.700;10.252;2023-09-08T06:09:37;16.90;99.90
3186;DHT22;1604;53.700;10.252;2023-09-08T06:12:40;17.20;99.90
3186;DHT22;1604;53.700;10.252;2023-09-08T06:15:49;17.50;99.90
3186;DHT22;1604;53.700;10.252;2023-09-08T06:18:53;17.80;99.90
3186;DHT22;1604;53.700;10.252;2023-09-08T06:21:58;18.10;99.90
3186;DHT22;1604;53.700;10.252;2023-09-08T06:25:07;18.30;99.90
3186;DHT22;1604;53.700;10.252;2023-09-08T06:28:09;18.60;99.90
3186;DHT22;1604;53.700;10.252;2023-09-08T06:31:15;18.80;99.90
3186;DHT22;1604;53.700;10.252;2023-09-08T06:34:17;19.10;99.90
3186;DHT22;1604;53.700;10.252;2023-09-08T06:37:22;19.30;99.30
3186;DHT22;1604;53.700;10.252;2023-09-08T06:40:24;19.50;99.00
3186;DHT22;1604;53.700;10.252;2023-09-08T06:43:26;19.70;98.50
3186;DHT22;1604;53.700;10.252;2023-09-08T06:46:29;20.00;98.00
3186;DHT22;1604;53.700;10.252;2023-09-08T06:49:31;20.20;97.40
3186;DHT22;1604;53.700;10.252;2023-09-08T06:52:33;20.40;97.40
3186;DHT22;1604;53.700;10.252;2023-09-08T06:55:34;20.60;96.90
3186;DHT22;1604;53.700;10.252;2023-09-08T06:58:37;20.80;96.20
3186;DHT22;1604;53.700;10.252;2023-09-08T07:01:41;21.00;96.00
3186;DHT22;1604;53.700;10.252;2023-09-08T07:04:43;21.20;95.10
3186;DHT22;1604;53.700;10.252;2023-09-08T07:07:45;21.40;94.60
3186;DHT22;1604;53.700;10.252;2023-09-08T07:10:52;21.50;94.40
3186;DHT22;1604;53.700;10.252;2023-09-08T07:13:54;21.80;93.50
3186;DHT22;1604;53.700;10.252;2023-09-08T07:16:58;21.90;92.80
3186;DHT22;1604;53.700;10.252;2023-09-08T07:20:00;22.20;91.90
3186;DHT22;1604;53.700;10.252;2023-09-08T07:23:02;22.30;91.40
3186;DHT22;1604;53.700;10.252;2023-09-08T07:26:04;22.50;90.50
3186;DHT22;1604;53.700;10.252;2023-09-08T07:29:06;22.70;89.50
3186;DHT22;1604;53.700;10.252;2023-09-08T07:32:09;22.80;89.60
3186;DHT22;1604;53.700;10.252;2023-09-08T07:35:11;23.00;88.60
3186;DHT22;1604;53.700;10.252;2023-09-08T07:38:15;23.00;88.00
3186;DHT22;1604;53.700;10.252;2023-09-08T07:41:17;23.20;87.60
3186;DHT22;1604;53.700;10.252;2023-09-08T07:44:19;23.40;86.40
3186;DHT22;1604;53.700;10.252;2023-09-08T07:47:22;23.50;84.80
3186;DHT22;1604;53.700;10.252;2023-09-08T07:50:26;23.60;85.20
3186;DHT22;1604;53.700;10.252;2023-09-08T07:53:29;23.80;84.80
3186;DHT22;1604;53.700;10.252;2023-09-08T07:56:33;23.90;85.10
3186;DHT22;1604;53.700;10.252;2023-09-08T07:59:35;24.10;83.00
3186;DHT22;1604;53.700;10.252;2023-09-08T08:02:41;24.10;83.90
3186;DHT22;1604;53.700;10.252;2023-09-08T08:05:43;24.30;84.00
3186;DHT22;1604;53.700;10.252;2023-09-08T08:08:48;24.50;82.10
3186;DHT22;1604;53.700;10.252;2023-09-08T08:11:50;24.70;81.50
3186;DHT22;1604;53.700;10.252;2023-09-08T08:14:52;24.80;80.60
3186;DHT22;1604;53.700;10.252;2023-09-08T08:17:55;25.00;80.00
3186;DHT22;1604;53.700;10.252;2023-09-08T08:20:57;25.10;78.40
3186;DHT22;1604;53.700;10.252;2023-09-08T08:24:00;25.20;77.20
3186;DHT22;1604;53.700;10.252;2023-09-08T08:27:03;25.30;77.80
3186;DHT22;1604;53.700;10.252;2023-09-08T08:30:06;25.50;75.70
3186;DHT22;1604;53.700;10.252;2023-09-08T08:33:09;25.50;75.50
3186;DHT22;1604;53.700;10.252;2023-09-08T08:36:11;25.60;76.60
3186;DHT22;1604;53.700;10.252;2023-09-08T08:39:13;25.80;75.10
3186;DHT22;1604;53.700;10.252;2023-09-08T08:42:15;26.00;73.10
3186;DHT22;1604;53.700;10.252;2023-09-08T08:45:18;26.20;72.90
3186;DHT22;1604;53.700;10.252;2023-09-08T08:48:24;26.40;73.70
3186;DHT22;1604;53.700;10.252;2023-09-08T08:51:28;26.40;72.70
3186;DHT22;1604;53.700;10.252;2023-09-08T08:54:32;26.70;70.40
3186;DHT22;1604;53.700;10.252;2023-09-08T08:57:37;27.00;70.50
3186;DHT22;1604;53.700;10.252;2023-09-08T09:00:39;27.20;68.60
3186;DHT22;1604;53.700;10.252;2023-09-08T09:03:42;27.20;69.10
3186;DHT22;1604;53.700;10.252;2023-09-08T09:06:45;27.20;69.10
3186;DHT22;1604;53.700;10.252;2023-09-08T09:09:47;27.20;67.70
3186;DHT22;1604;53.700;10.252;2023-09-08T09:12:49;27.20;68.10
3186;DHT22;1604;53.700;10.252;2023-09-08T09:15:51;27.30;68.30
3186;DHT22;1604;53.700;10.252;2023-09-08T09:18:58;27.40;67.90
3186;DHT22;1604;53.700;10.252;2023-09-08T09:22:00;27.70;65.50
3186;DHT22;1604;53.700;10.252;2023-09-08T09:25:04;27.70;66.30
3186;DHT22;1604;53.700;10.252;2023-09-08T09:28:08;27.60;66.30
3186;DHT22;1604;53.700;10.252;2023-09-08T09:31:10;27.60;66.80
3186;DHT22;1604;53.700;10.252;2023-09-08T09:34:17;27.60;68.50
3186;DHT22;1604;53.700;10.252;2023-09-08T09:37:20;27.70;65.80
3186;DHT22;1604;53.700;10.252;2023-09-08T09:40:27;27.80;66.00
3186;DHT22;1604;53.700;10.252;2023-09-08T09:43:31;27.80;66.40
3186;DHT22;1604;53.700;10.252;2023-09-08T09:46:33;28.00;65.30
3186;DHT22;1604;53.700;10.252;2023-09-08T09:49:43;28.30;64.40
3186;DHT22;1604;53.700;10.252;2023-09-08T09:52:45;28.50;63.40
3186;DHT22;1604;53.700;10.252;2023-09-08T09:55:49;28.70;64.20
3186;DHT22;1604;53.700;10.252;2023-09-08T09:58:53;28.90;63.60
3186;DHT22;1604;53.700;10.252;2023-09-08T10:01:55;29.00;62.80
3186;DHT22;1604;53.700;10.252;2023-09-08T10:05:10;29.30;61.80
3186;DHT22;1604;53.700;10.252;2023-09-08T10:08:12;29.60;61.20
3186;DHT22;1604;53.700;10.252;2023-09-08T10:11:15;29.70;60.50
3186;DHT22;1604;53.700;10.252;2023-09-08T10:14:18;29.70;60.50
3186;DHT22;1604;53.700;10.252;2023-09-08T10:17:25;29.80;60.70
3186;DHT22;1604;53.700;10.252;2023-09-08T10:20:33;29.90;61.10
3186;DHT22;1604;53.700;10.252;2023-09-08T10:23:38;30.00;60.30
3186;DHT22;1604;53.700;10.252;2023-09-08T10:26:44;30.20;59.00
3186;DHT22;1604;53.700;10.252;2023-09-08T10:29:48;30.40;59.10
3186;DHT22;1604;53.700;10.252;2023-09-08T10:32:51;30.60;58.90
3186;DHT22;1604;53.700;10.252;2023-09-08T10:35:55;30.70;58.50
3186;DHT22;1604;53.700;10.252;2023-09-08T10:39:26;30.80;58.10
3186;DHT22;1604;53.700;10.252;2023-09-08T10:42:29;30.80;57.10
3186;DHT22;1604;53.700;10.252;2023-09-08T10:45:30;30.90;57.90
3186;DHT22;1604;53.700;10.252;2023-09-08T10:48:40;31.00;57.70
3186;DHT22;1604;53.700;10.252;2023-09-08T10:51:44;31.10;56.90
3186;DHT22;1604;53.700;10.252;2023-09-08T10:54:50;31.10;56.80
3186;DHT22;1604;53.700;10.252;2023-09-08T10:57:54;31.30;56.90
3186;DHT22;1604;53.700;10.252;2023-09-08T11:00:59;31.20;57.10
3186;DHT22;1604;53.700;10.252;2023-09-08T11:04:04;31.20;56.50
3186;DHT22;1604;53.700;10.252;2023-09-08T11:07:10;31.30;56.70
3186;DHT22;1604;53.700;10.252;2023-09-08T11:10:13;31.20;56.80
3186;DHT22;1604;53.700;10.252;2023-09-08T11:13:15;31.30;57.30
3186;DHT22;1604;53.700;10.252;2023-09-08T11:16:17;31.40;57.10
3186;DHT22;1604;53.700;10.252;2023-09-08T11:19:23;31.60;56.20
3186;DHT22;1604;53.700;10.252;2023-09-08T11:22:27;31.60;56.30
3186;DHT22;1604;53.700;10.252;2023-09-08T11:25:29;31.60;55.30
3186;DHT22;1604;53.700;10.252;2023-09-08T11:28:31;31.60;54.90
3186;DHT22;1604;53.700;10.252;2023-09-08T11:31:33;31.70;55.60
3186;DHT22;1604;53.700;10.252;2023-09-08T11:34:36;31.70;55.00
3186;DHT22;1604;53.700;10.252;2023-09-08T11:37:40;31.70;55.40
3186;DHT22;1604;53.700;10.252;2023-09-08T11:40:42;31.70;55.90
3186;DHT22;1604;53.700;10.252;2023-09-08T11:43:45;31.90;56.00
3186;DHT22;1604;53.700;10.252;2023-09-08T11:46:47;32.00;54.90
3186;DHT22;1604;53.700;10.252;2023-09-08T11:49:52;32.20;54.20
3186;DHT22;1604;53.700;10.252;2023-09-08T11:52:56;32.40;53.90
3186;DHT22;1604;53.700;10.252;2023-09-08T11:55:59;32.50;52.80
3186;DHT22;1604;53.700;10.252;2023-09-08T11:59:01;32.40;52.70
3186;DHT22;1604;53.700;10.252;2023-09-08T12:02:04;32.40;53.70
3186;DHT22;1604;53.700;10.252;2023-09-08T12:05:11;32.60;52.60
3186;DHT22;1604;53.700;10.252;2023-09-08T12:08:15;32.50;53.30
3186;DHT22;1604;53.700;10.252;2023-09-08T12:11:17;32.60;53.30
3186;DHT22;1604;53.700;10.252;2023-09-08T12:14:18;32.50;52.90
3186;DHT22;1604;53.700;10.252;2023-09-08T12:17:21;32.60;53.00
3186;DHT22;1604;53.700;10.252;2023-09-08T12:20:25;32.70;52.40
3186;DHT22;1604;53.700;10.252;2023-09-08T12:23:28;32.80;51.90
3186;DHT22;1604;53.700;10.252;2023-09-08T12:26:30;32.70;53.40
3186;DHT22;1604;53.700;10.252;2023-09-08T12:29:32;32.70;53.00
3186;DHT22;1604;53.700;10.252;2023-09-08T12:32:34;32.70;52.60
3186;DHT22;1604;53.700;10.252;2023-09-08T12:35:36;32.80;52.10
3186;DHT22;1604;53.700;10.252;2023-09-08T12:38:40;32.80;52.10
3186;DHT22;1604;53.700;10.252;2023-09-08T12:41:42;32.80;51.70
3186;DHT22;1604;53.700;10.252;2023-09-08T12:44:44;32.90;51.80
3186;DHT22;1604;53.700;10.252;2023-09-08T12:47:45;32.90;52.50
3186;DHT22;1604;53.700;10.252;2023-09-08T12:50:48;33.00;50.70
3186;DHT22;1604;53.700;10.252;2023-09-08T12:53:51;33.00;51.10
3186;DHT22;1604;53.700;10.252;2023-09-08T12:56:53;32.80;51.80
3186;DHT22;1604;53.700;10.252;2023-09-08T12:59:55;32.70;52.10
3186;DHT22;1604;53.700;10.252;2023-09-08T13:02:57;32.80;51.80
3186;DHT22;1604;53.700;10.252;2023-09-08T13:05:59;32.70;52.70
3186;DHT22;1604;53.700;10.252;2023-09-08T13:09:02;32.60;52.90
3186;DHT22;1604;53.700;10.252;2023-09-08T13:12:05;32.60;52.50
3186;DHT22;1604;53.700;10.252;2023-09-08T13:15:09;32.60;51.90
3186;DHT22;1604;53.700;10.252;2023-09-08T13:18:11;32.50;52.00
3186;DHT22;1604;53.700;10.252;2023-09-08T13:21:13;32.50;53.00
3186;DHT22;1604;53.700;10.252;2023-09-08T13:24:16;32.60;52.80
3186;DHT22;1604;53.700;10.252;2023-09-08T13:27:19;32.50;53.40
3186;DHT22;1604;53.700;10.252;2023-09-08T13:30:21;32.70;53.10
3186;DHT22;1604;53.700;10.252;2023-09-08T13:33:27;32.70;53.10
3186;DHT22;1604;53.700;10.252;2023-09-08T13:36:29;32.80;53.20
3186;DHT22;1604;53.700;10.252;2023-09-08T13:39:32;32.80;53.00
3186;DHT22;1604;53.700;10.252;2023-09-08T13:42:35;32.70;52.80
3186;DHT22;1604;53.700;10.252;2023-09-08T13:45:40;32.70;52.70
3186;DHT22;1604;53.700;10.252;2023-09-08T13:48:43;32.70;53.50
3186;DHT22;1604;53.700;10.252;2023-09-08T13:51:48;32.60;52.90
3186;DHT22;1604;53.700;10.252;2023-09-08T13:54:53;32.50;54.00
3186;DHT22;1604;53.700;10.252;2023-09-08T13:57:55;32.50;52.40
3186;DHT22;1604;53.700;10.252;2023-09-08T14:00:56;32.40;52.90
3186;DHT22;1604;53.700;10.252;2023-09-08T14:03:58;32.30;52.60
3186;DHT22;1604;53.700;10.252;2023-09-08T14:07:01;32.10;54.00
3186;DHT22;1604;53.700;10.252;2023-09-08T14:10:05;32.10;54.00
3186;DHT22;1604;53.700;10.252;2023-09-08T14:13:08;32.10;54.20
3186;DHT22;1604;53.700;10.252;2023-09-08T14:16:11;32.00;54.40
3186;DHT22;1604;53.700;10.252;2023-09-08T14:19:13;31.90;54.50
3186;DHT22;1604;53.700;10.252;2023-09-08T14:22:15;31.80;54.70
3186;DHT22;1604;53.700;10.252;2023-09-08T14:25:18;31.90;54.30
3186;DHT22;1604;53.700;10.252;2023-09-08T14:28:20;31.80;54.30
3186;DHT22;1604;53.700;10.252;2023-09-08T14:31:22;31.80;54.00
3186;DHT22;1604;53.700;10.252;2023-09-08T14:34:24;31.80;53.40
3186;DHT22;1604;53.700;10.252;2023-09-08T14:37:26;31.80;54.20
3186;DHT22;1604;53.700;10.252;2023-09-08T14:40:29;31.70;53.40
3186;DHT22;1604;53.700;10.252;2023-09-08T14:43:31;31.70;53.20
3186;DHT22;1604;53.700;10.252;2023-09-08T14:46:33;31.60;54.00
3186;DHT22;1604;53.700;10.252;2023-09-08T14:49:35;31.50;54.60
3186;DHT22;1604;53.700;10.252;2023-09-08T14:52:36;31.40;54.50
3186;DHT22;1604;53.700;10.252;2023-09-08T14:55:42;31.30;55.10
3186;DHT22;1604;53.700;10.252;2023-09-08T14:58:44;31.10;55.40
3186;DHT22;1604;53.700;10.252;2023-09-08T15:01:46;31.00;56.00
3186;DHT22;1604;53.700;10.252;2023-09-08T15:04:50;30.90;55.80
3186;DHT22;1604;53.700;10.252;2023-09-08T15:07:52;30.80;55.30
3186;DHT22;1604;53.700;10.252;2023-09-08T15:10:55;30.70;56.30
3186;DHT22;1604;53.700;10.252;2023-09-08T15:13:57;30.60;56.50
3186;DHT22;1604;53.700;10.252;2023-09-08T15:16:59;30.50;56.20
3186;DHT22;1604;53.700;10.252;2023-09-08T15:20:03;30.50;55.40
3186;DHT22;1604;53.700;10.252;2023-09-08T15:23:07;30.50;54.30
3186;DHT22;1604;53.700;10.252;2023-09-08T15:26:11;30.40;54.40
3186;DHT22;1604;53.700;10.252;2023-09-08T15:29:13;30.30;55.10
3186;DHT22;1604;53.700;10.252;2023-09-08T15:32:16;30.10;54.50
3186;DHT22;1604;53.700;10.252;2023-09-08T15:35:18;30.00;55.10
3186;DHT22;1604;53.700;10.252;2023-09-08T15:38:23;30.00;54.60
3186;DHT22;1604;53.700;10.252;2023-09-08T15:41:26;29.90;54.80
3186;DHT22;1604;53.700;10.252;2023-09-08T15:44:31;29.80;55.00
3186;DHT22;1604;53.700;10.252;2023-09-08T15:47:35;29.70;55.90
3186;DHT22;1604;53.700;10.252;2023-09-08T15:50:37;29.50;55.60
3186;DHT22;1604;53.700;10.252;2023-09-08T15:53:39;29.30;56.60
3186;DHT22;1604;53.700;10.252;2023-09-08T15:56:42;29.20;56.70
3186;DHT22;1604;53.700;10.252;2023-09-08T15:59:45;29.10;57.50
3186;DHT22;1604;53.700;10.252;2023-09-08T16:02:46;29.10;57.70
3186;DHT22;1604;53.700;10.252;2023-09-08T16:05:48;29.00;57.30
3186;DHT22;1604;53.700;10.252;2023-09-08T16:08:53;28.90;58.10
3186;DHT22;1604;53.700;10.252;2023-09-08T16:11:59;28.80;58.50
3186;DHT22;1604;53.700;10.252;2023-09-08T16:15:01;28.70;58.90
3186;DHT22;1604;53.700;10.252;2023-09-08T16:18:03;28.70;58.00
3186;DHT22;1604;53.700;10.252;2023-09-08T16:21:05;28.70;58.70
3186;DHT22;1604;53.700;10.252;2023-09-08T16:24:07;28.50;59.60
3186;DHT22;1604;53.700;10.252;2023-09-08T16:27:10;28.50;60.00
3186;DHT22;1604;53.700;10.252;2023-09-08T16:30:13;28.40;60.20
3186;DHT22;1604;53.700;10.252;2023-09-08T16:33:15;28.30;61.20
3186;DHT22;1604;53.700;10.252;2023-09-08T16:36:17;28.20;61.60
3186;DHT22;1604;53.700;10.252;2023-09-08T16:39:19;28.10;62.20
3186;DHT22;1604;53.700;10.252;2023-09-08T16:42:22;28.00;62.70
3186;DHT22;1604;53.700;10.252;2023-09-08T16:45:24;27.90;63.30
3186;DHT22;1604;53.700;10.252;2023-09-08T16:48:26;27.90;63.90
3186;DHT22;1604;53.700;10.252;2023-09-08T16:51:28;27.80;64.10
3186;DHT22;1604;53.700;10.252;2023-09-08T16:54:30;27.70;64.40
3186;DHT22;1604;53.700;10.252;2023-09-08T16:57:33;27.60;65.00
3186;DHT22;1604;53.700;10.252;2023-09-08T17:00:35;27.50;65.40
3186;DHT22;1604;53.700;10.252;2023-09-08T17:03:37;27.40;65.80
3186;DHT22;1604;53.700;10.252;2023-09-08T17:06:38;27.30;66.20
3186;DHT22;1604;53.700;10.252;2023-09-08T17:09:41;27.20;66.40
3186;DHT22;1604;53.700;10.252;2023-09-08T17:12:44;27.20;66.60
3186;DHT22;1604;53.700;10.252;2023-09-08T17:15:46;27.10;66.80
3186;DHT22;1604;53.700;10.252;2023-09-08T17:18:47;27.00;67.30
3186;DHT22;1604;53.700;10.252;2023-09-08T17:21:49;26.80;67.90
3186;DHT22;1604;53.700;10.252;2023-09-08T17:24:52;26.70;68.20
3186;DHT22;1604;53.700;10.252;2023-09-08T17:27:55;26.60;68.60
3186;DHT22;1604;53.700;10.252;2023-09-08T17:30:57;26.50;68.90
3186;DHT22;1604;53.700;10.252;2023-09-08T17:33:59;26.40;69.30
3186;DHT22;1604;53.700;10.252;2023-09-08T17:37:01;26.30;69.70
3186;DHT22;1604;53.700;10.252;2023-09-08T17:40:05;26.20;70.00
3186;DHT22;1604;53.700;10.252;2023-09-08T17:43:09;26.10;70.60
3186;DHT22;1604;53.700;10.252;2023-09-08T17:46:10;26.00;71.70
3186;DHT22;1604;53.700;10.252;2023-09-08T17:49:12;25.90;73.50
3186;DHT22;1604;53.700;10.252;2023-09-08T17:52:14;25.70;75.10
3186;DHT22;1604;53.700;10.252;2023-09-08T17:55:16;25.60;77.20
3186;DHT22;1604;53.700;10.252;2023-09-08T17:58:19;25.40;78.30
3186;DHT22;1604;53.700;10.252;2023-09-08T18:01:21;25.20;79.40
3186;DHT22;1604;53.700;10.252;2023-09-08T18:04:23;25.10;80.30
3186;DHT22;1604;53.700;10.252;2023-09-08T18:07:25;24.90;80.90
3186;DHT22;1604;53.700;10.252;2023-09-08T18:10:27;24.80;82.90
3186;DHT22;1604;53.700;10.252;2023-09-08T18:13:31;24.60;84.20
3186;DHT22;1604;53.700;10.252;2023-09-08T18:16:33;24.50;85.50
3186;DHT22;1604;53.700;10.252;2023-09-08T18:19:35;24.30;86.30
3186;DHT22;1604;53.700;10.252;2023-09-08T18:22:38;24.10;87.60
3186;DHT22;1604;53.700;10.252;2023-09-08T18:25:42;24.00;88.60
3186;DHT22;1604;53.700;10.252;2023-09-08T18:28:46;23.80;88.90
3186;DHT22;1604;53.700;10.252;2023-09-08T18:31:48;23.60;89.70
3186;DHT22;1604;53.700;10.252;2023-09-08T18:34:51;23.50;90.10
3186;DHT22;1604;53.700;10.252;2023-09-08T18:37:53;23.40;90.80
3186;DHT22;1604;53.700;10.252;2023-09-08T18:40:55;23.20;91.30
3186;DHT22;1604;53.700;10.252;2023-09-08T18:43:58;23.10;91.20
3186;DHT22;1604;53.700;10.252;2023-09-08T18:47:00;23.00;91.60
3186;DHT22;1604;53.700;10.252;2023-09-08T18:50:04;22.90;91.90
3186;DHT22;1604;53.700;10.252;2023-09-08T18:53:06;22.70;92.30
3186;DHT22;1604;53.700;10.252;2023-09-08T18:56:08;22.60;92.60
3186;DHT22;1604;53.700;10.252;2023-09-08T18:59:11;22.50;92.50
3186;DHT22;1604;53.700;10.252;2023-09-08T19:02:14;22.40;92.50
3186;DHT22;1604;53.700;10.252;2023-09-08T19:05:17;22.30;92.60
3186;DHT22;1604;53.700;10.252;2023-09-08T19:08:19;22.20;93.10
3186;DHT22;1604;53.700;10.252;2023-09-08T19:11:21;22.10;93.30
3186;DHT22;1604;53.700;10.252;2023-09-08T19:14:24;22.00;93.50
3186;DHT22;1604;53.700;10.252;2023-09-08T19:17:29;21.90;93.80
3186;DHT22;1604;53.700;10.252;2023-09-08T19:20:31;21.80;93.90
3186;DHT22;1604;53.700;10.252;2023-09-08T19:23:33;21.70;94.30
3186;DHT22;1604;53.700;10.252;2023-09-08T19:26:35;21.60;94.60
3186;DHT22;1604;53.700;10.252;2023-09-08T19:29:38;21.50;95.00
3186;DHT22;1604;53.700;10.252;2023-09-08T19:32:40;21.40;95.30